createdAt,value
2023-03-21T00:01:53.008Z,11.65
2023-03-21T00:04:21.064Z,11.79
2023-03-21T00:06:48.118Z,11.71
2023-03-21T00:09:15.597Z,11.66
2023-03-21T00:11:42.847Z,11.62
2023-03-21T00:14:14.447Z,11.58
2023-03-21T00:17:01.344Z,11.49
2023-03-21T00:19:30.595Z,11.51
2023-03-21T00:22:13.834Z,11.44
2023-03-21T00:24:41.145Z,11.34
2023-03-21T00:27:34.586Z,11.21
2023-03-21T00:29:55.651Z,11.26
2023-03-21T00:32:22.861Z,11.24
2023-03-21T00:35:38.242Z,11.07
2023-03-21T00:37:37.324Z,11.13
2023-03-21T00:40:23.120Z,11.07
2023-03-21T00:42:52.796Z,11.02
2023-03-21T00:45:21.949Z,11.00
2023-03-21T00:47:49.148Z,10.96
2023-03-21T00:50:16.450Z,10.91
2023-03-21T00:52:43.431Z,10.86
2023-03-21T00:55:14.825Z,10.83
2023-03-21T00:57:45.290Z,10.67
2023-03-21T01:00:15.929Z,10.74
2023-03-21T01:03:02.604Z,10.68
2023-03-21T01:05:57.340Z,10.62
2023-03-21T01:08:29.528Z,10.56
2023-03-21T01:11:02.688Z,10.52
2023-03-21T01:13:29.938Z,10.48
2023-03-21T01:15:57.536Z,10.43
2023-03-21T01:18:27.415Z,10.29
2023-03-21T01:20:56.971Z,10.32
2023-03-21T01:23:25.918Z,10.31
2023-03-21T01:25:54.789Z,10.18
2023-03-21T01:28:22.678Z,10.28
2023-03-21T01:30:51.359Z,10.28
2023-03-21T01:33:20.298Z,10.21
2023-03-21T01:35:53.454Z,10.26
2023-03-21T01:38:28.271Z,10.29
2023-03-21T01:40:55.822Z,10.30
2023-03-21T01:43:35.469Z,10.31
2023-03-21T01:46:22.067Z,10.32
2023-03-21T01:49:25.070Z,10.30
2023-03-21T01:52:10.179Z,10.30
2023-03-21T01:54:43.189Z,10.27
2023-03-21T01:57:14.314Z,10.22
2023-03-21T01:59:45.259Z,10.09
2023-03-21T02:02:33.791Z,10.13
2023-03-21T02:05:15.761Z,10.09
2023-03-21T02:07:44.030Z,10.06
2023-03-21T02:10:16.972Z,10.03
2023-03-21T02:12:48.566Z,10.01
2023-03-21T02:15:16.780Z,9.98
2023-03-21T02:18:07.612Z,9.95
2023-03-21T02:20:58.671Z,9.91
2023-03-21T02:23:33.661Z,9.89
2023-03-21T02:26:19.696Z,9.87
2023-03-21T02:29:08.700Z,9.83
2023-03-21T02:31:52.035Z,9.72
2023-03-21T02:34:52.668Z,9.76
2023-03-21T02:37:37.689Z,9.67
2023-03-21T02:40:32.211Z,9.74
2023-03-21T02:43:24.319Z,9.71
2023-03-21T02:46:00.145Z,9.67
2023-03-21T02:49:01.195Z,9.61
2023-03-21T02:51:32.384Z,9.55
2023-03-21T02:54:26.385Z,9.38
2023-03-21T02:56:54.185Z,9.43
2023-03-21T02:59:25.115Z,9.31
2023-03-21T03:01:53.628Z,9.34
2023-03-21T03:04:23.736Z,9.31
2023-03-21T03:07:25.647Z,9.30
2023-03-21T03:10:07.956Z,9.25
2023-03-21T03:12:40.311Z,9.21
2023-03-21T03:15:28.738Z,9.16
2023-03-21T03:18:31.077Z,9.12
2023-03-21T03:21:21.378Z,9.05
2023-03-21T03:23:52.750Z,9.02
2023-03-21T03:26:23.283Z,8.99
2023-03-21T03:28:54.124Z,8.91
2023-03-21T03:31:27.339Z,8.91
2023-03-21T03:34:07.154Z,8.84
2023-03-21T03:36:42.262Z,8.83
2023-03-21T03:39:16.124Z,8.79
2023-03-21T03:42:10.089Z,8.76
2023-03-21T03:44:48.774Z,8.62
2023-03-21T03:47:50.709Z,8.60
2023-03-21T03:50:38.840Z,8.56
2023-03-21T03:53:38.592Z,8.46
2023-03-21T03:56:09.785Z,8.55
2023-03-21T03:58:45.648Z,8.52
2023-03-21T04:01:17.691Z,8.40
2023-03-21T04:03:54.449Z,7.90
2023-03-21T04:06:24.410Z,8.36
2023-03-21T04:08:52.083Z,8.37
2023-03-21T04:11:19.173Z,8.35
2023-03-21T04:13:50.732Z,8.33
2023-03-21T04:16:23.442Z,8.27
2023-03-21T04:18:52.694Z,8.28
2023-03-21T04:21:21.625Z,8.21
2023-03-21T04:23:48.464Z,8.23
2023-03-21T04:26:15.623Z,7.88
2023-03-21T04:28:54.221Z,8.19
2023-03-21T04:31:41.636Z,8.20
2023-03-21T04:34:13.135Z,8.20
2023-03-21T04:36:49.670Z,8.21
2023-03-21T04:39:18.418Z,8.21
2023-03-21T04:41:50.000Z,8.23
2023-03-21T04:44:18.550Z,8.27
2023-03-21T04:46:46.526Z,8.31
2023-03-21T04:49:13.854Z,8.35
2023-03-21T04:51:45.177Z,8.39
2023-03-21T04:54:17.875Z,8.44
2023-03-21T04:56:44.882Z,8.49
2023-03-21T04:59:15.877Z,8.57
2023-03-21T05:01:44.037Z,8.45
2023-03-21T05:04:13.595Z,8.70
2023-03-21T05:06:42.619Z,8.75
2023-03-21T05:09:09.779Z,8.76
2023-03-21T05:11:39.271Z,8.83
2023-03-21T05:14:09.179Z,8.91
2023-03-21T05:16:48.559Z,8.98
2023-03-21T05:19:19.299Z,8.83
2023-03-21T05:21:48.952Z,9.09
2023-03-21T05:24:22.030Z,9.20
2023-03-21T05:26:50.758Z,9.26
2023-03-21T05:29:19.856Z,9.35
2023-03-21T05:31:53.311Z,9.39
2023-03-21T05:34:21.144Z,9.49
2023-03-21T05:36:49.374Z,9.59
2023-03-21T05:39:17.115Z,9.70
2023-03-21T05:41:54.746Z,9.85
2023-03-21T05:44:21.831Z,9.97
2023-03-21T05:46:48.835Z,10.10
2023-03-21T05:49:19.201Z,10.24
2023-03-21T05:51:46.705Z,10.26
2023-03-21T05:54:16.817Z,10.55
2023-03-21T05:56:47.227Z,10.74
2023-03-21T05:59:22.752Z,10.91
2023-03-21T06:01:52.657Z,11.01
2023-03-21T06:04:20.755Z,11.20
2023-03-21T06:06:47.748Z,11.45
2023-03-21T06:09:15.037Z,11.61
2023-03-21T06:11:49.832Z,11.80
2023-03-21T06:14:24.790Z,11.95
2023-03-21T06:17:27.185Z,12.12
2023-03-21T06:20:01.181Z,12.21
2023-03-21T06:22:32.301Z,12.34
2023-03-21T06:25:01.646Z,12.47
2023-03-21T06:27:30.036Z,12.47
2023-03-21T06:29:59.791Z,12.32
2023-03-21T06:32:29.413Z,12.39
2023-03-21T06:35:01.587Z,12.63
2023-03-21T06:37:30.124Z,12.84
2023-03-21T06:39:57.351Z,12.53
2023-03-21T06:42:25.468Z,12.84
2023-03-21T06:44:58.810Z,12.97
2023-03-21T06:47:27.069Z,13.17
2023-03-21T06:49:54.135Z,13.26
2023-03-21T06:52:21.336Z,13.34
2023-03-21T06:54:49.079Z,13.41
2023-03-21T06:57:20.586Z,13.51
2023-03-21T06:59:48.438Z,13.53
2023-03-21T07:02:19.551Z,13.45
2023-03-21T07:05:01.593Z,13.43
2023-03-21T07:07:30.790Z,13.53
2023-03-21T07:09:57.658Z,13.42
2023-03-21T07:12:26.749Z,13.03
2023-03-21T07:15:14.538Z,13.45
2023-03-21T07:17:43.664Z,13.49
2023-03-21T07:20:12.740Z,13.39
2023-03-21T07:22:40.634Z,13.41
2023-03-21T07:25:08.322Z,13.65
2023-03-21T07:27:41.402Z,13.76
2023-03-21T07:30:10.518Z,13.93
2023-03-21T07:32:39.719Z,14.13
2023-03-21T07:35:10.578Z,14.31
2023-03-21T07:37:38.285Z,14.52
2023-03-21T07:40:10.837Z,14.72
2023-03-21T07:42:41.465Z,14.89
2023-03-21T07:45:12.933Z,15.04
2023-03-21T07:47:40.881Z,15.20
2023-03-21T07:50:08.283Z,15.50
2023-03-21T07:52:35.273Z,15.68
2023-03-21T07:55:03.420Z,15.74
2023-03-21T07:57:30.640Z,15.76
2023-03-21T08:00:00.715Z,16.02
2023-03-21T08:02:28.150Z,16.19
2023-03-21T08:04:55.132Z,16.46
2023-03-21T08:07:22.240Z,16.68
2023-03-21T08:09:49.112Z,16.65
2023-03-21T08:12:16.894Z,16.48
2023-03-21T08:14:43.820Z,16.64
2023-03-21T08:17:10.892Z,16.64
2023-03-21T08:19:37.786Z,16.66
2023-03-21T08:22:06.786Z,16.71
2023-03-21T08:24:34.185Z,16.72
2023-03-21T08:27:02.391Z,16.65
2023-03-21T08:29:29.366Z,16.69
2023-03-21T08:31:56.305Z,16.72
2023-03-21T08:34:23.312Z,16.67
2023-03-21T08:36:50.160Z,16.51
2023-03-21T08:39:17.394Z,16.43
2023-03-21T08:41:46.427Z,16.51
2023-03-21T08:44:14.017Z,16.60
2023-03-21T08:46:40.999Z,16.79
2023-03-21T08:49:08.103Z,16.50
2023-03-21T08:51:37.679Z,16.85
2023-03-21T08:54:04.806Z,16.87
2023-03-21T08:56:31.955Z,17.01
2023-03-21T08:58:59.307Z,17.13
2023-03-21T09:01:26.338Z,17.20
2023-03-21T09:03:53.586Z,17.17
2023-03-21T09:06:20.720Z,17.27
2023-03-21T09:08:48.417Z,17.16
2023-03-21T09:11:15.621Z,17.14
2023-03-21T09:13:42.497Z,17.16
2023-03-21T09:16:09.805Z,17.29
2023-03-21T09:18:57.297Z,17.37
2023-03-21T09:21:24.730Z,17.36
2023-03-21T09:23:56.293Z,17.34
2023-03-21T09:26:25.366Z,17.37
2023-03-21T09:28:53.235Z,17.52
2023-03-21T09:31:23.498Z,17.72
2023-03-21T09:33:51.255Z,17.77
2023-03-21T09:36:21.219Z,17.75
2023-03-21T09:38:50.038Z,17.80
2023-03-21T09:41:50.700Z,18.13
2023-03-21T09:44:39.372Z,18.15
2023-03-21T09:47:22.160Z,18.24
2023-03-21T09:50:11.191Z,18.20
2023-03-21T09:52:56.906Z,17.60
2023-03-21T09:55:30.837Z,17.26
2023-03-21T09:58:30.716Z,17.63
2023-03-21T10:01:05.316Z,17.86
2023-03-21T10:03:36.972Z,18.11
2023-03-21T10:06:16.066Z,18.20
2023-03-21T10:08:47.142Z,17.85
2023-03-21T10:11:32.439Z,18.37
2023-03-21T10:14:04.495Z,18.78
2023-03-21T10:16:41.601Z,18.87
2023-03-21T10:19:13.704Z,18.94
2023-03-21T10:22:03.469Z,19.34
2023-03-21T10:24:34.108Z,19.76
2023-03-21T10:27:02.887Z,19.81
2023-03-21T10:29:42.303Z,19.90
2023-03-21T10:32:11.910Z,19.85
2023-03-21T10:34:53.533Z,19.51
2023-03-21T10:37:21.175Z,19.40
2023-03-21T10:39:51.548Z,19.30
2023-03-21T10:42:24.970Z,18.86
2023-03-21T10:44:57.677Z,19.32
2023-03-21T10:47:31.879Z,19.47
2023-03-21T10:50:10.540Z,19.61
2023-03-21T10:52:45.048Z,19.41
2023-03-21T10:55:18.643Z,18.90
2023-03-21T10:57:47.304Z,19.04
2023-03-21T11:00:25.817Z,19.29
2023-03-21T11:02:54.415Z,19.53
2023-03-21T11:05:27.005Z,19.44
2023-03-21T11:08:15.501Z,19.38
2023-03-21T11:11:01.316Z,19.57
2023-03-21T11:13:43.954Z,19.72
2023-03-21T11:16:26.417Z,18.73
2023-03-21T11:19:01.357Z,18.73
2023-03-21T11:21:35.313Z,19.07
2023-03-21T11:24:03.754Z,19.37
2023-03-21T11:26:37.586Z,19.45
2023-03-21T11:29:23.560Z,18.98
2023-03-21T11:31:50.733Z,18.82
2023-03-21T11:34:36.105Z,19.00
2023-03-21T11:37:03.958Z,19.41
2023-03-21T11:39:40.142Z,19.47
2023-03-21T11:42:27.016Z,18.81
2023-03-21T11:45:01.910Z,19.12
2023-03-21T11:47:31.615Z,19.27
2023-03-21T11:50:04.918Z,19.36
2023-03-21T11:52:41.811Z,19.56
2023-03-21T11:55:22.047Z,19.72
2023-03-21T11:58:05.280Z,19.82
2023-03-21T12:00:51.821Z,19.59
2023-03-21T12:03:48.475Z,19.81
2023-03-21T12:06:38.477Z,20.02
2023-03-21T12:09:18.678Z,20.04
2023-03-21T12:12:01.553Z,20.08
2023-03-21T12:14:55.086Z,19.94
2023-03-21T12:17:21.977Z,19.90
2023-03-21T12:19:57.662Z,19.99
2023-03-21T12:22:41.725Z,19.86
2023-03-21T12:25:32.899Z,19.64
2023-03-21T12:28:32.131Z,19.70
2023-03-21T12:31:02.858Z,19.40
2023-03-21T12:33:54.748Z,19.78
2023-03-21T12:36:27.750Z,19.97
2023-03-21T12:39:18.000Z,20.06
2023-03-21T12:41:50.990Z,20.27
2023-03-21T12:44:22.564Z,20.43
2023-03-21T12:47:00.982Z,20.12
2023-03-21T12:49:34.413Z,20.22
2023-03-21T12:52:27.459Z,20.37
2023-03-21T12:55:06.649Z,20.51
2023-03-21T12:57:56.439Z,20.43
2023-03-21T13:00:27.615Z,20.59
2023-03-21T13:03:14.054Z,20.49
2023-03-21T13:05:46.974Z,20.68
2023-03-21T13:08:21.243Z,20.68
2023-03-21T13:10:48.452Z,20.78
2023-03-21T13:13:36.799Z,20.58
2023-03-21T13:16:10.809Z,20.45
2023-03-21T13:18:46.820Z,20.39
2023-03-21T13:21:31.435Z,20.41
2023-03-21T13:24:26.193Z,20.41
2023-03-21T13:27:00.850Z,20.31
2023-03-21T13:29:44.798Z,20.33
2023-03-21T13:32:30.951Z,20.34
2023-03-21T13:35:19.924Z,20.32
2023-03-21T13:37:53.204Z,20.25
2023-03-21T13:40:26.248Z,20.15
2023-03-21T13:42:57.202Z,19.91
2023-03-21T13:45:46.540Z,19.84
2023-03-21T13:48:46.556Z,19.81
2023-03-21T13:51:37.731Z,19.81
2023-03-21T13:54:07.619Z,19.61
2023-03-21T13:56:46.727Z,19.28
2023-03-21T13:59:36.587Z,19.30
2023-03-21T14:02:19.897Z,18.92
2023-03-21T14:05:04.071Z,19.02
2023-03-21T14:07:41.860Z,18.80
2023-03-21T14:10:19.969Z,18.84
2023-03-21T14:12:47.577Z,18.60
2023-03-21T14:15:30.515Z,18.41
2023-03-21T14:18:10.816Z,18.39
2023-03-21T14:20:59.627Z,18.16
2023-03-21T14:23:26.710Z,18.24
2023-03-21T14:25:53.866Z,18.13
2023-03-21T14:28:23.017Z,18.02
2023-03-21T14:30:54.871Z,17.75
2023-03-21T14:33:51.971Z,17.63
2023-03-21T14:36:28.975Z,17.44
2023-03-21T14:39:20.325Z,17.40
2023-03-21T14:42:02.362Z,17.32
2023-03-21T14:44:53.402Z,17.37
2023-03-21T14:47:27.451Z,17.35
2023-03-21T14:49:56.534Z,17.30
2023-03-21T14:52:43.365Z,17.03
2023-03-21T14:55:16.429Z,17.14
2023-03-21T14:57:43.650Z,17.09
2023-03-21T15:00:23.799Z,16.99
2023-03-21T15:02:52.296Z,16.91
2023-03-21T15:05:32.839Z,16.74
2023-03-21T15:08:08.871Z,16.76
2023-03-21T15:10:38.806Z,16.70
2023-03-21T15:13:18.729Z,16.51
2023-03-21T15:15:47.626Z,16.46
2023-03-21T15:18:25.497Z,16.41
2023-03-21T15:20:55.924Z,16.31
2023-03-21T15:23:30.986Z,16.26
2023-03-21T15:26:02.114Z,16.15
2023-03-21T15:28:29.247Z,16.00
2023-03-21T15:30:57.619Z,15.87
2023-03-21T15:33:26.192Z,15.87
2023-03-21T15:35:56.544Z,15.82
2023-03-21T15:38:41.633Z,15.75
2023-03-21T15:41:22.437Z,15.65
2023-03-21T15:44:06.054Z,15.60
2023-03-21T15:46:53.351Z,15.51
2023-03-21T15:49:31.234Z,15.33
2023-03-21T15:52:01.268Z,15.18
2023-03-21T15:54:41.762Z,15.11
2023-03-21T15:57:23.815Z,14.90
2023-03-21T15:59:56.650Z,14.83
2023-03-21T16:02:28.975Z,14.85
2023-03-21T16:04:58.807Z,14.78
2023-03-21T16:07:26.810Z,14.38
2023-03-21T16:10:04.609Z,14.50
2023-03-21T16:12:31.670Z,14.68
2023-03-21T16:14:58.965Z,14.61
2023-03-21T16:17:38.171Z,14.56
2023-03-21T16:20:20.525Z,14.45
2023-03-21T16:22:48.197Z,14.07
2023-03-21T16:25:15.376Z,13.97
2023-03-21T16:27:42.739Z,13.83
2023-03-21T16:30:13.677Z,13.78
2023-03-21T16:32:41.168Z,13.78
2023-03-21T16:35:08.672Z,13.75
2023-03-21T16:37:36.024Z,13.76
2023-03-21T16:40:06.044Z,13.60
2023-03-21T16:42:33.098Z,13.62
2023-03-21T16:45:00.101Z,13.50
2023-03-21T16:47:27.168Z,13.36
2023-03-21T16:49:55.715Z,13.30
2023-03-21T16:52:25.853Z,13.13
2023-03-21T16:54:56.159Z,12.89
2023-03-21T16:57:29.113Z,12.91
2023-03-21T16:59:56.406Z,12.96
2023-03-21T17:02:24.935Z,12.96
2023-03-21T17:04:52.033Z,13.02
2023-03-21T17:07:19.040Z,13.04
2023-03-21T17:09:48.022Z,13.01
2023-03-21T17:12:16.601Z,13.08
2023-03-21T17:14:45.626Z,13.08
2023-03-21T17:17:14.082Z,12.95
2023-03-21T17:19:42.632Z,13.00
2023-03-21T17:22:12.500Z,13.06
2023-03-21T17:24:40.633Z,13.07
2023-03-21T17:27:08.814Z,13.00
2023-03-21T17:29:35.906Z,12.99
2023-03-21T17:32:03.684Z,12.96
2023-03-21T17:34:33.330Z,12.66
2023-03-21T17:37:01.718Z,12.86
2023-03-21T17:39:29.064Z,12.49
2023-03-21T17:41:57.069Z,12.73
2023-03-21T17:44:25.827Z,12.73
2023-03-21T17:46:53.397Z,12.74
2023-03-21T17:49:21.156Z,12.73
2023-03-21T17:51:48.333Z,12.66
2023-03-21T17:54:15.479Z,12.64
2023-03-21T17:56:42.426Z,12.56
2023-03-21T17:59:13.261Z,11.96
2023-03-21T18:01:43.898Z,12.62
2023-03-21T18:04:11.577Z,12.67
2023-03-21T18:06:41.794Z,12.65
2023-03-21T18:09:13.805Z,12.72
2023-03-21T18:11:47.422Z,12.71
2023-03-21T18:14:18.579Z,12.60
2023-03-21T18:16:50.793Z,12.51
2023-03-21T18:19:18.145Z,12.46
2023-03-21T18:21:46.063Z,12.50
2023-03-21T18:24:16.194Z,12.48
2023-03-21T18:26:44.044Z,12.44
2023-03-21T18:32:07.317Z,12.31
2023-03-21T18:34:38.776Z,12.20
2023-03-21T18:37:08.412Z,12.16
2023-03-21T18:39:36.528Z,12.20
2023-03-21T18:42:05.034Z,12.22
2023-03-21T18:44:40.565Z,12.10
2023-03-21T18:47:08.556Z,11.82
2023-03-21T18:50:10.396Z,11.90
2023-03-21T18:52:23.509Z,11.78
2023-03-21T18:54:50.837Z,11.35
2023-03-21T18:57:35.866Z,11.73
2023-03-21T19:00:12.801Z,11.60
2023-03-21T19:02:46.373Z,11.71
2023-03-21T19:05:17.351Z,11.72
2023-03-21T19:07:44.645Z,11.77
2023-03-21T19:10:18.146Z,11.82
2023-03-21T19:12:52.732Z,11.76
2023-03-21T19:15:25.218Z,11.69
2023-03-21T19:20:46.605Z,11.86
2023-03-21T19:23:14.244Z,11.74
2023-03-21T19:25:42.818Z,11.71
2023-03-21T19:28:09.990Z,11.64
2023-03-21T19:30:37.675Z,11.63
2023-03-21T19:33:05.487Z,11.55
2023-03-21T19:35:35.343Z,11.36
2023-03-21T19:38:02.496Z,11.51
2023-03-21T19:40:29.402Z,11.58
2023-03-21T19:42:57.647Z,11.49
2023-03-21T19:45:25.527Z,11.45
2023-03-21T19:47:52.588Z,11.57
2023-03-21T19:53:06.464Z,11.41
2023-03-21T19:55:34.004Z,11.35
2023-03-21T19:58:02.118Z,11.28
2023-03-21T20:00:30.243Z,11.38
2023-03-21T20:02:57.342Z,11.35
2023-03-21T20:05:25.740Z,11.34
2023-03-21T20:07:57.246Z,11.34
2023-03-21T20:10:28.327Z,11.21
2023-03-21T20:12:56.139Z,11.29
2023-03-21T20:15:26.794Z,11.28
2023-03-21T20:17:55.979Z,11.28
2023-03-21T20:20:23.854Z,11.26
2023-03-21T20:23:06.424Z,11.31
2023-03-21T20:25:35.191Z,11.28
2023-03-21T20:28:25.539Z,11.22
2023-03-21T20:30:57.024Z,11.04
2023-03-21T20:33:25.403Z,10.90
2023-03-21T20:38:51.986Z,11.23
2023-03-21T20:41:19.169Z,11.18
2023-03-21T20:46:34.368Z,11.27
2023-03-21T20:49:02.262Z,11.31
2023-03-21T20:52:36.915Z,11.32
2023-03-21T20:54:17.860Z,11.33
2023-03-21T20:56:45.090Z,11.34
2023-03-21T20:59:23.171Z,11.43
2023-03-21T21:01:53.075Z,11.41
2023-03-21T21:04:20.735Z,11.46
2023-03-21T21:06:48.475Z,11.44
2023-03-21T21:09:16.533Z,11.35
2023-03-21T21:12:06.926Z,11.46
2023-03-21T21:14:30.583Z,11.28
2023-03-21T21:16:58.941Z,11.15
2023-03-21T21:19:26.291Z,11.04
2023-03-21T21:21:53.275Z,11.18
2023-03-21T21:24:20.374Z,11.22
2023-03-21T21:26:47.402Z,11.26
2023-03-21T21:29:17.234Z,11.31
2023-03-21T21:31:46.805Z,11.36
2023-03-21T21:34:13.781Z,11.41
2023-03-21T21:36:45.007Z,11.40
2023-03-21T21:39:16.161Z,11.45
2023-03-21T21:41:43.483Z,11.48
2023-03-21T21:44:11.299Z,11.40
2023-03-21T21:46:38.876Z,11.34
2023-03-21T21:49:05.814Z,11.19
2023-03-21T21:51:38.016Z,11.18
2023-03-21T21:54:05.948Z,10.97
2023-03-21T21:56:38.498Z,11.03
2023-03-21T21:59:05.872Z,10.94
2023-03-21T22:01:38.755Z,11.03
2023-03-21T22:04:10.989Z,10.82
2023-03-21T22:06:38.169Z,11.06
2023-03-21T22:09:05.700Z,10.99
2023-03-21T22:11:33.648Z,10.94
2023-03-21T22:14:00.828Z,10.91
2023-03-21T22:16:27.943Z,10.86
2023-03-21T22:18:54.913Z,10.79
2023-03-21T22:21:22.448Z,10.76
2023-03-21T22:23:49.364Z,10.68
2023-03-21T22:26:16.650Z,10.75
2023-03-21T22:28:43.908Z,10.63
2023-03-21T22:31:14.501Z,10.66
2023-03-21T22:33:42.634Z,10.64
2023-03-21T22:36:09.905Z,10.59
2023-03-21T22:38:38.302Z,10.69
2023-03-21T22:41:06.654Z,10.41
2023-03-21T22:43:35.422Z,10.55
2023-03-21T22:46:04.378Z,10.69
2023-03-21T22:48:32.066Z,10.40
2023-03-21T22:51:00.487Z,10.70
2023-03-21T22:53:28.000Z,10.73
2023-03-21T22:55:55.057Z,10.73
2023-03-21T22:58:22.342Z,10.75
2023-03-21T23:00:49.384Z,10.58
2023-03-21T23:03:17.104Z,10.62
2023-03-21T23:05:45.144Z,10.73
2023-03-21T23:08:13.154Z,10.78
2023-03-21T23:10:43.416Z,10.79
2023-03-21T23:13:11.342Z,10.76
2023-03-21T23:15:39.599Z,10.73
2023-03-21T23:18:07.010Z,10.74
2023-03-21T23:20:34.022Z,10.74
2023-03-21T23:23:00.921Z,10.71
2023-03-21T23:25:29.016Z,10.75
2023-03-21T23:27:56.205Z,10.77
2023-03-21T23:30:23.161Z,10.68
2023-03-21T23:32:50.295Z,10.69
2023-03-21T23:35:17.680Z,10.74
2023-03-21T23:37:51.971Z,10.73
2023-03-21T23:40:20.936Z,10.57
2023-03-21T23:42:47.876Z,10.54
2023-03-21T23:45:15.634Z,10.69
2023-03-21T23:47:42.827Z,10.67
2023-03-21T23:50:10.910Z,10.58
2023-03-21T23:52:38.693Z,10.66
2023-03-21T23:55:06.434Z,10.60
2023-03-21T23:57:33.609Z,10.64
